This is the latest recevied weather packets stored in our database for station/object HI3LT-16. If no packets are shown the sender has not sent any weather packets the latest 10 day(s).
| Time | Temp. | Humidity | Pressure | Rain* | Wind** | Luminosity | Snow |
|---|---|---|---|---|---|---|---|
| 1777512701 | 22.22° C | 93% | 1015 hPa | 1.27 mm | - | - | - |
| 1777512099 | 22.22° C | 93% | 1014 hPa | 0 mm | - | - | - |
| 1777511496 | 22.22° C | 93% | 1014 hPa | 0 mm | - | - | - |
| 1777510875 | 22.22° C | 93% | 1014 hPa | 0.25 mm | - | - | - |
| 1777510257 | 22.22° C | 93% | 1014 hPa | 0 mm | - | - | - |
| 1777509656 | 22.22° C | 92% | 1014 hPa | 0 mm | - | - | - |
| 1777509055 | 22.22° C | 91% | 1014 hPa | 0 mm | - | - | - |
| 1777508454 | 22.22° C | 90% | 1013 hPa | 0 mm | - | - | - |
| 1777507842 | 22.78° C | 88% | 1013 hPa | 0.25 mm | - | - | - |
| 1777507241 | 23.33° C | 88% | 1013 hPa | 0 mm | - | - | - |
| 1777506624 | 23.33° C | 88% | 1013 hPa | 0 mm | - | - | - |
| 1777506023 | 23.33° C | 88% | 1013 hPa | 0 mm | - | - | - |
| 1777505422 | 23.33° C | 88% | 1013 hPa | 0.25 mm | - | - | - |
| 1777504821 | 23.33° C | 88% | 1013 hPa | 0.76 mm | - | - | - |
| 1777504218 | 23.33° C | 88% | 1013 hPa | 0.76 mm | - | - | - |
| 1777503616 | 26.11° C | 78% | 1013 hPa | 0 mm | - | - | - |
| 1777503013 | 26.11° C | 78% | 1013 hPa | 0 mm | - | - | - |
| 1777502412 | 26.11° C | 78% | 1013 hPa | 0 mm | - | - | - |
| 1777501801 | 26.11° C | 78% | 1013 hPa | 0 mm | - | - | - |
| 1777501199 | 26.11° C | 78% | 1012 hPa | 0 mm | - | - | - |
| 1777500598 | 26.11° C | 78% | 1012 hPa | 0 mm | - | - | - |
| 1777499995 | 28.33° C | 70% | 1012 hPa | 0 mm | - | - | - |
| 1777499394 | 28.33° C | 70% | 1012 hPa | 0.25 mm | - | - | - |
| 1777498792 | 27.78° C | 67% | 1012 hPa | 0.76 mm | - | - | - |
| 1777498191 | 27.78° C | 66% | 1012 hPa | 0.76 mm | - | - | - |
* Rain latest hour (hover to see other rain measurements)
** Current wind speed in m/s (hover to see current wind gust speed)